Terminal Aerodrome Forecast
Issued by NWS Omaha/Valley, NE

Home | Current Version | Previous Version | Graphics & Text | Print | Product List | Glossary On
Versions: 1 2 3 4 5 6 7 8 9 10 11 12 13 14 15 16
000
FTUS43 KOAX 212320
TAFOFK
TAF
KOFK 212320Z 2200/2224 35015G24KT P6SM SKC
     FM220100 VRB05KT P6SM SKC
     FM221500 15008KT P6SM SKC
     FM221800 16014G21KT P6SM SCT250=

USA.gov is the U.S. government's official web portal to all federal, state and local government web resources and services.